Time;durP1;ratioP1;P1;durP2;ratioP2;P2;SDS_P1;SDS_P2;PMS_P1;PMS_P2;Temp;Humidity;BMP_temperature;BMP_pressure;BME280_temperature;BME280_humidity;BME280_pressure;Samples;Min_cycle;Max_cycle;Signal;HPM_P1;HPM_P2
2022/09/16 00:00:29;;;;;;;2.30;2.10;;;13.50;99.90;;;;;;4978624;28;20629;-78
2022/09/16 00:02:57;;;;;;;2.13;2.00;;;13.60;99.90;;;;;;4979918;28;20649;-78
2022/09/16 00:05:24;;;;;;;2.63;2.40;;;13.50;99.90;;;;;;4979797;28;20629;-77
2022/09/16 00:07:52;;;;;;;1.73;1.63;;;13.60;99.90;;;;;;4981506;28;20633;-77
2022/09/16 00:10:20;;;;;;;2.10;2.00;;;13.50;99.90;;;;;;4979987;28;20673;-77
2022/09/16 00:12:47;;;;;;;3.10;1.90;;;13.60;99.90;;;;;;4980966;28;20637;-78
2022/09/16 00:15:14;;;;;;;2.60;2.40;;;13.60;99.90;;;;;;4988923;28;20621;-78
2022/09/16 00:17:40;;;;;;;1.90;1.80;;;13.60;99.90;;;;;;4988940;28;20625;-78
2022/09/16 00:20:09;;;;;;;1.90;1.80;;;13.60;99.90;;;;;;4988841;28;20629;-78
2022/09/16 00:22:36;;;;;;;4.07;2.50;;;13.60;99.90;;;;;;4988698;28;20684;-79
2022/09/16 00:25:04;;;;;;;2.10;1.70;;;13.60;99.90;;;;;;4988640;28;20637;-77
2022/09/16 00:27:31;;;;;;;2.07;1.87;;;13.60;99.90;;;;;;4988143;28;20667;-77
2022/09/16 00:29:58;;;;;;;3.80;2.67;;;13.60;99.90;;;;;;4989357;28;20665;-77
2022/09/16 00:32:25;;;;;;;2.53;2.33;;;13.60;99.90;;;;;;4988723;28;20647;-77
2022/09/16 00:34:52;;;;;;;2.63;2.43;;;13.60;99.90;;;;;;4988456;28;20625;-77
2022/09/16 00:37:19;;;;;;;3.00;2.80;;;13.60;99.90;;;;;;4987704;28;20637;-77
2022/09/16 00:39:48;;;;;;;3.53;1.83;;;13.60;99.90;;;;;;4988969;28;20621;-77
2022/09/16 00:42:17;;;;;;;1.97;1.87;;;13.60;99.90;;;;;;4988227;28;20633;-78
2022/09/16 00:44:56;;;;;;;2.40;2.17;;;13.60;99.90;;;;;;4987134;28;21251;-78
2022/09/16 00:47:29;;;;;;;2.43;2.33;;;13.60;99.90;;;;;;4987881;28;21206;-79
2022/09/16 00:50:02;;;;;;;2.80;2.50;;;13.50;99.90;;;;;;4987471;28;21083;-77
2022/09/16 00:52:30;;;;;;;3.00;2.33;;;13.50;99.90;;;;;;4988209;28;20719;-77
2022/09/16 00:54:58;;;;;;;1.80;1.70;;;13.50;99.90;;;;;;4987767;28;20720;-77
2022/09/16 00:57:26;;;;;;;2.13;1.93;;;13.50;99.90;;;;;;4987581;28;20635;-77
2022/09/16 00:59:55;;;;;;;2.50;2.30;;;13.50;99.90;;;;;;4987545;28;21199;-77
2022/09/16 01:02:23;;;;;;;1.80;1.70;;;13.50;99.90;;;;;;4985924;28;20983;-78
2022/09/16 01:04:54;;;;;;;2.70;1.93;;;13.50;99.90;;;;;;4987552;28;20633;-78
2022/09/16 01:07:27;;;;;;;2.93;2.33;;;13.60;99.90;;;;;;4980551;28;20643;-78
2022/09/16 01:09:54;;;;;;;2.27;2.07;;;13.60;99.90;;;;;;4988596;28;20629;-78
2022/09/16 01:12:21;;;;;;;5.30;3.30;;;13.60;99.90;;;;;;4987705;28;20621;-77
2022/09/16 01:14:57;;;;;;;2.53;1.70;;;13.50;99.90;;;;;;4974343;28;20632;-77
2022/09/16 01:17:38;;;;;;;2.43;2.23;;;13.50;99.90;;;;;;4987988;28;20643;-78
2022/09/16 01:20:45;;;;;;;2.13;2.03;;;13.50;99.90;;;;;;4987776;28;20640;-78
2022/09/16 01:24:02;;;;;;;2.23;1.93;;;13.40;99.90;;;;;;4986939;28;20703;-77
2022/09/16 01:27:05;;;;;;;2.80;2.23;;;13.40;99.90;;;;;;4987726;28;20684;-77
2022/09/16 01:30:02;;;;;;;1.90;1.80;;;13.40;99.90;;;;;;4987553;28;20621;-77
2022/09/16 01:32:38;;;;;;;1.87;1.77;;;13.40;99.90;;;;;;4984614;28;20739;-77
2022/09/16 01:35:15;;;;;;;2.27;1.83;;;13.40;99.90;;;;;;4987733;28;20628;-77
2022/09/16 01:37:52;;;;;;;2.00;1.80;;;13.40;99.90;;;;;;4987427;28;20741;-77
2022/09/16 01:40:27;;;;;;;2.63;2.33;;;13.40;99.90;;;;;;4988261;28;20621;-77
2022/09/16 01:43:03;;;;;;;2.10;1.87;;;13.30;99.90;;;;;;4987646;28;20624;-78
2022/09/16 01:45:36;;;;;;;2.93;2.73;;;13.30;99.90;;;;;;4987631;28;20630;-77
2022/09/16 01:48:10;;;;;;;2.90;2.20;;;13.30;99.90;;;;;;4987268;28;20632;-77
2022/09/16 01:50:45;;;;;;;3.47;2.43;;;13.30;99.90;;;;;;4987590;28;20677;-77
2022/09/16 01:53:18;;;;;;;1.97;1.87;;;13.30;99.90;;;;;;4988004;28;20635;-77
2022/09/16 01:55:51;;;;;;;1.80;1.70;;;13.30;99.90;;;;;;4987300;28;20629;-78
2022/09/16 01:58:26;;;;;;;2.53;2.13;;;13.20;99.90;;;;;;4985507;28;20621;-77
2022/09/16 02:00:59;;;;;;;2.60;2.40;;;13.20;99.90;;;;;;4986362;28;20617;-77
2022/09/16 02:03:32;;;;;;;3.10;2.53;;;13.10;99.90;;;;;;4985829;28;21116;-77
2022/09/16 02:06:02;;;;;;;2.10;1.90;;;13.10;99.90;;;;;;4987529;28;20736;-77
2022/09/16 02:08:33;;;;;;;2.13;2.03;;;13.10;99.90;;;;;;4972664;28;21271;-77
2022/09/16 02:11:03;;;;;;;2.77;1.53;;;13.10;99.90;;;;;;4978523;28;21439;-77
2022/09/16 02:13:34;;;;;;;2.70;1.90;;;13.10;99.90;;;;;;4991528;28;21191;-77
2022/09/16 02:16:07;;;;;;;2.20;1.97;;;13.20;99.90;;;;;;4991396;28;20641;-77
2022/09/16 02:18:40;;;;;;;1.90;1.80;;;13.10;99.90;;;;;;4985112;28;21126;-77
2022/09/16 02:21:11;;;;;;;1.70;1.60;;;13.20;99.90;;;;;;4991286;28;20635;-77
2022/09/16 02:23:44;;;;;;;2.37;1.80;;;13.20;99.90;;;;;;4991188;28;20667;-77
2022/09/16 02:26:17;;;;;;;2.90;2.33;;;13.10;99.90;;;;;;4972792;28;20628;-77
2022/09/16 02:28:49;;;;;;;2.10;1.70;;;13.20;99.90;;;;;;4984935;28;20671;-77
2022/09/16 02:31:17;;;;;;;4.67;2.27;;;13.20;99.90;;;;;;4990418;28;20672;-77
2022/09/16 02:33:49;;;;;;;2.33;1.73;;;13.20;99.90;;;;;;4991673;28;20975;-77
2022/09/16 02:36:22;;;;;;;1.40;1.30;;;13.10;99.90;;;;;;4990331;28;20621;-77
2022/09/16 02:38:55;;;;;;;2.00;1.80;;;13.10;99.90;;;;;;4990932;28;20640;-77
2022/09/16 02:41:24;;;;;;;2.07;1.73;;;13.00;99.90;;;;;;4990940;28;20656;-77
2022/09/16 02:43:52;;;;;;;1.20;1.13;;;13.00;99.90;;;;;;4990494;28;21202;-78
2022/09/16 02:46:25;;;;;;;2.83;2.30;;;13.00;99.90;;;;;;4990709;28;20644;-78
2022/09/16 02:49:02;;;;;;;1.67;1.57;;;13.00;99.90;;;;;;4989808;28;20708;-77
2022/09/16 02:51:36;;;;;;;2.80;1.83;;;13.10;99.90;;;;;;4990714;28;20668;-77
2022/09/16 02:54:11;;;;;;;1.30;1.20;;;13.00;99.90;;;;;;4979388;28;20620;-77
2022/09/16 02:56:41;;;;;;;1.50;1.40;;;13.00;99.90;;;;;;4990662;28;20632;-77
2022/09/16 02:59:12;;;;;;;1.90;1.77;;;13.00;99.90;;;;;;4989551;28;20724;-77
2022/09/16 03:01:41;;;;;;;1.47;1.37;;;12.90;99.90;;;;;;4990381;28;21076;-77
2022/09/16 03:04:11;;;;;;;2.53;2.03;;;12.80;99.90;;;;;;4987173;28;20739;-77
2022/09/16 03:06:38;;;;;;;2.40;1.73;;;13.00;99.90;;;;;;4990230;28;21028;-77
2022/09/16 03:09:07;;;;;;;1.70;1.60;;;13.00;99.90;;;;;;4990129;28;20632;-77
2022/09/16 03:12:07;;;;;;;1.40;1.30;;;13.10;99.90;;;;;;4989791;28;20656;-77
2022/09/16 03:14:56;;;;;;;0.80;0.70;;;13.10;99.90;;;;;;4989653;28;20679;-77
2022/09/16 03:17:39;;;;;;;4.20;2.07;;;13.10;99.90;;;;;;4989662;28;20637;-77
2022/09/16 03:20:15;;;;;;;2.10;1.90;;;13.10;99.90;;;;;;4989718;28;20629;-77
2022/09/16 03:22:48;;;;;;;1.80;1.70;;;13.00;99.90;;;;;;4989359;28;21190;-78
2022/09/16 03:25:27;;;;;;;3.00;1.67;;;13.00;99.90;;;;;;4989705;28;20625;-78
2022/09/16 03:28:01;;;;;;;4.93;1.27;;;13.00;99.90;;;;;;4990190;28;20719;-80
2022/09/16 03:30:33;;;;;;;2.20;1.43;;;13.10;99.90;;;;;;4989754;28;20743;-77
2022/09/16 03:33:04;;;;;;;2.53;1.83;;;13.10;99.90;;;;;;4980674;28;21525;-78
2022/09/16 03:35:38;;;;;;;1.70;1.60;;;13.00;99.90;;;;;;4989128;28;20617;-77
2022/09/16 03:38:11;;;;;;;2.53;2.17;;;13.00;99.90;;;;;;4988933;28;20658;-78
2022/09/16 03:40:38;;;;;;;1.17;1.17;;;12.90;99.90;;;;;;4988849;28;20688;-79
2022/09/16 03:43:21;;;;;;;2.10;1.73;;;12.90;99.90;;;;;;4990014;28;20637;-79
2022/09/16 03:45:48;;;;;;;1.13;1.00;;;12.90;99.90;;;;;;4989233;28;20676;-77
2022/09/16 03:48:15;;;;;;;1.47;1.37;;;12.90;99.90;;;;;;4989773;28;20644;-76
2022/09/16 03:50:43;;;;;;;1.43;1.33;;;12.90;99.90;;;;;;4989804;28;20631;-77
2022/09/16 03:53:10;;;;;;;2.40;1.67;;;12.90;99.90;;;;;;4986330;28;20636;-77
2022/09/16 03:55:37;;;;;;;2.37;1.70;;;12.70;99.90;;;;;;4989368;28;20637;-78
2022/09/16 03:58:04;;;;;;;1.37;1.27;;;12.90;99.90;;;;;;4985616;28;21072;-77
2022/09/16 04:00:31;;;;;;;1.80;1.23;;;12.90;99.90;;;;;;4970515;28;21047;-77
2022/09/16 04:02:59;;;;;;;1.10;1.10;;;12.80;99.90;;;;;;4985202;28;21111;-77
2022/09/16 04:05:26;;;;;;;1.33;1.23;;;12.80;99.90;;;;;;4989394;28;20617;-77
2022/09/16 04:07:55;;;;;;;1.43;1.30;;;12.90;99.90;;;;;;4988548;28;20668;-78
2022/09/16 04:10:21;;;;;;;1.57;1.47;;;12.90;99.90;;;;;;4989147;28;20626;-77
2022/09/16 04:12:48;;;;;;;2.10;1.87;;;12.90;99.90;;;;;;4988851;28;20665;-77
2022/09/16 04:15:15;;;;;;;1.17;1.10;;;12.90;99.90;;;;;;4988953;28;20629;-77
2022/09/16 04:17:42;;;;;;;1.43;1.23;;;12.90;99.90;;;;;;4988655;28;20637;-77
2022/09/16 04:20:09;;;;;;;1.60;1.07;;;12.90;99.90;;;;;;4988516;28;21514;-78
2022/09/16 04:22:36;;;;;;;1.40;1.30;;;12.80;99.90;;;;;;4989209;28;20645;-77
2022/09/16 04:25:05;;;;;;;1.77;1.67;;;12.90;99.90;;;;;;4988710;28;21195;-79
2022/09/16 04:27:32;;;;;;;1.87;1.77;;;12.90;99.90;;;;;;4988773;28;20636;-77
2022/09/16 04:29:59;;;;;;;1.53;1.43;;;12.90;99.90;;;;;;4988328;28;20629;-77
2022/09/16 04:32:26;;;;;;;1.50;1.40;;;12.90;99.90;;;;;;4989064;28;21253;-77
2022/09/16 04:34:54;;;;;;;2.10;1.50;;;12.90;99.90;;;;;;4988292;28;20629;-77
2022/09/16 04:37:20;;;;;;;1.00;1.00;;;12.90;99.90;;;;;;4988778;28;20643;-77
2022/09/16 04:39:47;;;;;;;1.63;1.47;;;12.80;99.90;;;;;;4989221;28;20614;-77
2022/09/16 04:42:15;;;;;;;1.70;1.60;;;12.90;99.90;;;;;;4988508;28;20671;-77
2022/09/16 04:44:43;;;;;;;1.43;1.33;;;12.90;99.90;;;;;;4988036;28;20634;-77
2022/09/16 04:47:10;;;;;;;1.10;1.00;;;12.90;99.90;;;;;;4987527;28;20637;-77
2022/09/16 04:49:37;;;;;;;1.23;1.13;;;12.90;99.90;;;;;;4988495;28;20633;-77
2022/09/16 04:52:50;;;;;;;2.67;1.70;;;12.90;99.90;;;;;;4983709;28;21399;-80
2022/09/16 04:55:21;;;;;;;1.13;1.10;;;13.00;99.90;;;;;;4970623;28;20629;-77
2022/09/16 04:57:51;;;;;;;2.73;1.83;;;12.80;99.90;;;;;;4985453;28;20651;-77
2022/09/16 05:00:18;;;;;;;1.70;1.60;;;12.90;99.90;;;;;;4978150;28;20629;-79
2022/09/16 05:02:45;;;;;;;1.73;1.57;;;12.90;99.90;;;;;;4981851;28;20645;-78
2022/09/16 05:05:12;;;;;;;2.03;1.70;;;12.90;99.90;;;;;;4982626;28;20737;-77
2022/09/16 05:07:39;;;;;;;1.30;1.20;;;12.90;99.90;;;;;;4977097;28;20198;-77
2022/09/16 05:10:08;;;;;;;1.83;1.63;;;12.90;99.90;;;;;;4978527;28;20706;-80
2022/09/16 05:12:35;;;;;;;1.53;1.43;;;12.90;99.90;;;;;;4978761;28;20660;-79
2022/09/16 05:15:13;;;;;;;1.70;1.60;;;12.90;99.90;;;;;;4976123;28;20632;-78
2022/09/16 05:17:41;;;;;;;5.40;1.77;;;12.90;99.90;;;;;;4977345;28;20754;-79
2022/09/16 05:20:09;;;;;;;2.00;1.80;;;12.90;99.90;;;;;;4979037;28;20747;-78
2022/09/16 05:22:36;;;;;;;1.07;1.00;;;12.90;99.90;;;;;;4987920;28;20719;-79
2022/09/16 05:25:03;;;;;;;1.30;1.13;;;12.90;99.90;;;;;;4986337;28;20660;-78
2022/09/16 05:27:30;;;;;;;1.70;1.40;;;12.90;99.90;;;;;;4987559;28;20724;-78
2022/09/16 05:29:57;;;;;;;1.33;1.23;;;12.90;99.90;;;;;;4987207;28;20629;-78
2022/09/16 05:32:26;;;;;;;1.70;1.50;;;12.80;99.90;;;;;;4986771;28;20666;-77
2022/09/16 05:34:53;;;;;;;1.57;1.47;;;12.80;99.90;;;;;;4981238;28;21214;-78
2022/09/16 05:37:20;;;;;;;1.53;1.20;;;12.90;99.90;;;;;;4973312;28;20656;-78
2022/09/16 05:39:47;;;;;;;2.33;1.37;;;12.90;99.90;;;;;;4973500;28;20629;-78
2022/09/16 05:42:13;;;;;;;1.73;1.63;;;12.70;99.90;;;;;;4985839;28;20624;-77
2022/09/16 05:44:40;;;;;;;1.87;1.57;;;12.90;99.90;;;;;;4979387;28;20626;-78
2022/09/16 05:47:07;;;;;;;2.43;1.60;;;12.90;99.90;;;;;;4976645;28;20618;-77
2022/09/16 05:49:36;;;;;;;0.83;0.80;;;12.90;99.90;;;;;;4991230;28;20628;-76
2022/09/16 05:52:03;;;;;;;1.73;1.47;;;12.80;99.90;;;;;;4990679;28;20763;-77
2022/09/16 05:54:30;;;;;;;1.80;1.67;;;12.80;99.90;;;;;;4988950;28;20736;-78
2022/09/16 05:56:57;;;;;;;2.10;1.80;;;12.80;99.90;;;;;;4974973;28;21178;-76
2022/09/16 05:59:23;;;;;;;2.13;1.40;;;12.80;99.90;;;;;;4972892;28;20634;-77
2022/09/16 06:01:50;;;;;;;1.53;1.43;;;12.90;99.90;;;;;;4988368;28;20648;-76
2022/09/16 06:04:17;;;;;;;1.57;1.47;;;12.70;99.90;;;;;;4982997;28;20895;-78
2022/09/16 06:06:46;;;;;;;1.93;1.63;;;12.90;99.90;;;;;;4983947;28;20717;-77
2022/09/16 06:09:15;;;;;;;1.23;1.03;;;12.90;99.90;;;;;;4987978;28;20621;-77
2022/09/16 06:11:44;;;;;;;1.20;1.03;;;12.90;99.90;;;;;;4990945;28;20882;-76
2022/09/16 06:14:12;;;;;;;2.87;1.67;;;12.80;99.90;;;;;;4982725;28;20644;-76
2022/09/16 06:16:39;;;;;;;2.10;1.90;;;12.80;99.90;;;;;;4989700;28;20617;-76
2022/09/16 06:19:09;;;;;;;1.33;1.00;;;13.20;99.90;;;;;;4991006;28;20632;-75
2022/09/16 06:21:36;;;;;;;1.83;1.70;;;12.70;99.90;;;;;;4989766;28;20629;-75
2022/09/16 06:24:07;;;;;;;1.57;1.47;;;12.70;99.90;;;;;;4984121;28;20659;-78
2022/09/16 06:26:35;;;;;;;1.57;1.47;;;12.60;99.90;;;;;;4994916;28;20628;-77
2022/09/16 06:29:02;;;;;;;1.53;1.40;;;12.70;99.90;;;;;;4994068;28;20627;-76
2022/09/16 06:31:29;;;;;;;1.83;1.30;;;12.60;99.90;;;;;;4983023;28;20863;-76
2022/09/16 06:33:58;;;;;;;1.53;1.43;;;12.60;99.90;;;;;;4984275;28;21214;-76
2022/09/16 06:36:26;;;;;;;1.80;1.70;;;12.60;99.90;;;;;;4989649;28;20748;-75
2022/09/16 06:38:53;;;;;;;1.43;1.30;;;12.60;99.90;;;;;;4990468;28;20629;-76
2022/09/16 06:41:22;;;;;;;2.33;1.43;;;12.60;99.90;;;;;;4990506;28;20683;-75
2022/09/16 06:43:50;;;;;;;1.50;1.40;;;12.60;99.90;;;;;;4990419;28;20635;-77
2022/09/16 06:46:19;;;;;;;3.23;1.80;;;12.70;99.90;;;;;;4988597;28;20640;-76
2022/09/16 06:48:49;;;;;;;2.00;1.53;;;12.70;99.90;;;;;;4990132;28;21238;-75
2022/09/16 06:51:17;;;;;;;4.23;1.93;;;12.70;99.90;;;;;;4990130;28;20736;-77
2022/09/16 06:53:45;;;;;;;1.47;1.37;;;12.60;99.90;;;;;;4989988;28;20664;-77
2022/09/16 06:56:13;;;;;;;1.77;1.67;;;12.60;99.90;;;;;;4988492;28;20629;-77
2022/09/16 06:58:43;;;;;;;1.90;1.70;;;12.70;99.90;;;;;;4986192;28;20629;-76
2022/09/16 07:01:12;;;;;;;1.03;1.03;;;12.70;99.90;;;;;;4990237;28;20720;-77
2022/09/16 07:03:41;;;;;;;3.80;2.43;;;12.80;99.90;;;;;;4986207;28;21206;-76
2022/09/16 07:06:08;;;;;;;2.93;2.17;;;12.70;99.90;;;;;;4987727;28;20632;-77
2022/09/16 07:08:36;;;;;;;2.27;1.87;;;12.60;99.90;;;;;;4990317;28;20639;-77
2022/09/16 07:11:05;;;;;;;1.30;1.20;;;12.60;99.90;;;;;;4988827;28;20644;-78
2022/09/16 07:13:32;;;;;;;2.10;1.50;;;12.50;99.90;;;;;;4990599;28;20660;-77
2022/09/16 07:16:02;;;;;;;1.77;1.23;;;12.40;99.90;;;;;;4989407;28;20643;-78
2022/09/16 07:18:29;;;;;;;3.57;1.83;;;12.50;99.90;;;;;;4978818;28;20630;-77
2022/09/16 07:21:02;;;;;;;1.57;1.47;;;12.50;99.90;;;;;;4989532;28;20712;-76
2022/09/16 07:23:30;;;;;;;1.30;1.20;;;12.50;99.90;;;;;;4984705;28;21164;-78
2022/09/16 07:26:01;;;;;;;1.70;1.57;;;12.50;99.90;;;;;;4987402;28;20629;-77
2022/09/16 07:28:28;;;;;;;2.30;1.63;;;12.40;99.90;;;;;;4990221;28;20660;-78
2022/09/16 07:30:55;;;;;;;3.40;2.23;;;12.40;99.90;;;;;;4989740;28;20636;-77
2022/09/16 07:33:23;;;;;;;1.70;1.50;;;12.30;99.90;;;;;;4989649;28;20681;-78
2022/09/16 07:35:50;;;;;;;1.70;1.60;;;12.40;99.90;;;;;;4988818;28;20622;-77
2022/09/16 07:38:17;;;;;;;1.87;1.70;;;12.40;99.90;;;;;;4982092;28;20629;-76
2022/09/16 07:40:44;;;;;;;2.57;2.00;;;12.50;99.90;;;;;;4989166;28;21195;-76
2022/09/16 07:43:11;;;;;;;2.10;1.90;;;12.50;99.90;;;;;;4989817;28;20628;-76
2022/09/16 07:45:37;;;;;;;2.27;2.17;;;12.50;99.90;;;;;;4988398;28;20699;-77
2022/09/16 07:48:04;;;;;;;2.73;1.80;;;12.50;99.90;;;;;;4989023;28;20644;-77
2022/09/16 07:50:32;;;;;;;2.43;2.03;;;12.50;99.90;;;;;;4987347;28;20708;-76
2022/09/16 07:52:59;;;;;;;2.67;2.17;;;12.50;99.90;;;;;;4988175;28;21270;-76
2022/09/16 07:55:26;;;;;;;2.33;1.43;;;12.50;99.90;;;;;;4988274;28;20632;-77
2022/09/16 07:57:53;;;;;;;2.63;1.97;;;12.50;99.90;;;;;;4984440;28;20640;-78
2022/09/16 08:00:21;;;;;;;2.53;1.73;;;12.60;99.90;;;;;;4970058;28;20728;-77
2022/09/16 08:02:47;;;;;;;2.43;2.23;;;12.60;99.90;;;;;;4977989;28;20649;-77
2022/09/16 08:05:15;;;;;;;2.50;2.30;;;12.20;99.90;;;;;;4986514;28;21217;-77
2022/09/16 08:07:43;;;;;;;1.93;1.73;;;12.50;99.90;;;;;;4988178;28;20978;-77
2022/09/16 08:10:10;;;;;;;1.87;1.77;;;12.60;99.90;;;;;;4989184;28;20629;-79
2022/09/16 08:12:37;;;;;;;1.60;1.47;;;12.60;99.90;;;;;;4988360;28;20657;-78
2022/09/16 08:15:04;;;;;;;2.70;2.30;;;12.60;99.90;;;;;;4987881;28;20732;-76
2022/09/16 08:17:30;;;;;;;2.63;2.07;;;12.70;99.90;;;;;;4988831;28;20632;-76
2022/09/16 08:19:57;;;;;;;2.60;2.40;;;12.80;99.90;;;;;;4987777;28;20637;-78
2022/09/16 08:22:24;;;;;;;3.43;2.43;;;12.70;99.90;;;;;;4988607;28;21309;-76
2022/09/16 08:24:52;;;;;;;3.07;2.40;;;12.80;99.90;;;;;;4988087;28;20683;-78
2022/09/16 08:27:19;;;;;;;2.10;1.90;;;12.90;99.90;;;;;;4988347;28;20637;-76
2022/09/16 08:29:46;;;;;;;2.40;2.20;;;12.80;99.90;;;;;;4987519;28;20728;-78
2022/09/16 08:32:13;;;;;;;2.50;1.90;;;12.80;99.90;;;;;;4986329;28;20632;-79
2022/09/16 08:34:40;;;;;;;2.43;2.23;;;12.90;99.90;;;;;;4987254;28;22392;-76
2022/09/16 08:37:07;;;;;;;2.63;1.80;;;12.80;99.90;;;;;;4988257;28;21214;-77
2022/09/16 08:39:34;;;;;;;2.40;2.23;;;12.80;99.90;;;;;;4988209;28;20637;-78
2022/09/16 08:42:19;;;;;;;2.20;2.00;;;12.80;99.90;;;;;;4987952;28;20811;-76
2022/09/16 08:44:56;;;;;;;2.40;2.07;;;12.70;99.90;;;;;;4987336;28;20627;-78
2022/09/16 08:47:42;;;;;;;2.93;2.13;;;12.70;99.90;;;;;;4977650;28;20744;-77
2022/09/16 08:50:15;;;;;;;5.00;2.03;;;12.70;99.90;;;;;;4987995;28;20712;-77
2022/09/16 08:52:44;;;;;;;1.87;1.77;;;12.70;99.90;;;;;;4987676;28;20656;-78
2022/09/16 08:55:16;;;;;;;2.73;2.47;;;12.80;99.90;;;;;;4986261;28;20668;-79
2022/09/16 08:57:53;;;;;;;2.53;2.33;;;12.70;99.90;;;;;;4987427;28;20665;-78
2022/09/16 09:00:21;;;;;;;1.97;1.80;;;12.80;99.90;;;;;;4982128;28;20633;-77
2022/09/16 09:02:53;;;;;;;1.60;1.50;;;12.90;99.90;;;;;;4981112;28;20652;-77
2022/09/16 09:05:28;;;;;;;2.33;2.13;;;12.90;99.90;;;;;;4984051;28;20736;-76
2022/09/16 09:08:14;;;;;;;1.60;1.50;;;12.90;99.90;;;;;;4987404;28;20713;-79
2022/09/16 09:10:48;;;;;;;1.20;1.20;;;12.80;99.90;;;;;;4987684;28;20668;-76
2022/09/16 09:13:36;;;;;;;2.60;1.80;;;12.90;99.90;;;;;;4987583;28;20676;-80
2022/09/16 09:16:14;;;;;;;1.63;1.53;;;13.00;99.90;;;;;;4983583;28;20633;-77
2022/09/16 09:18:52;;;;;;;2.53;2.33;;;13.10;99.90;;;;;;4983358;28;20625;-77
2022/09/16 09:21:27;;;;;;;2.07;1.60;;;13.10;99.90;;;;;;4987468;28;20720;-76
2022/09/16 09:24:12;;;;;;;1.73;1.53;;;13.10;99.90;;;;;;4987972;28;20993;-78
2022/09/16 09:26:48;;;;;;;5.50;1.67;;;12.90;99.90;;;;;;4987215;28;20631;-76
2022/09/16 09:29:46;;;;;;;3.03;2.37;;;13.10;99.90;;;;;;4987428;28;20620;-77
2022/09/16 09:32:34;;;;;;;4.23;2.83;;;12.90;99.90;;;;;;4978534;28;20749;-76
2022/09/16 09:35:13;;;;;;;2.13;1.93;;;13.10;99.90;;;;;;4972124;28;21456;-79
2022/09/16 09:37:55;;;;;;;3.70;2.03;;;13.20;99.90;;;;;;4978152;28;20671;-76
2022/09/16 09:40:32;;;;;;;1.67;1.47;;;13.10;99.90;;;;;;4977533;28;20764;-76
2022/09/16 09:43:07;;;;;;;2.00;1.90;;;13.20;99.90;;;;;;4987625;28;20637;-78
2022/09/16 09:45:40;;;;;;;1.43;1.33;;;13.20;99.90;;;;;;4968831;28;20645;-77
2022/09/16 09:48:15;;;;;;;2.00;1.37;;;13.20;99.90;;;;;;4984368;28;21054;-78
2022/09/16 09:50:45;;;;;;;1.37;1.27;;;13.30;99.90;;;;;;4987587;28;20651;-77
2022/09/16 09:53:18;;;;;;;3.47;2.90;;;13.20;99.90;;;;;;4987348;28;20671;-78
2022/09/16 09:55:45;;;;;;;1.20;1.10;;;13.30;99.90;;;;;;4982244;28;20732;-76
2022/09/16 09:58:21;;;;;;;1.80;1.70;;;13.30;99.90;;;;;;4983126;28;20618;-78
2022/09/16 10:00:51;;;;;;;2.30;2.10;;;13.20;99.90;;;;;;4970672;28;21225;-77
2022/09/16 10:03:19;;;;;;;2.13;1.83;;;13.30;99.90;;;;;;4984961;28;20675;-76
2022/09/16 10:05:47;;;;;;;5.63;2.00;;;13.20;99.90;;;;;;4986335;28;20652;-78
2022/09/16 10:08:23;;;;;;;4.00;2.73;;;13.20;99.90;;;;;;4983015;28;20649;-77
2022/09/16 10:10:52;;;;;;;2.20;2.00;;;13.20;99.90;;;;;;4980502;28;20744;-76
2022/09/16 10:13:21;;;;;;;1.53;1.30;;;13.30;99.90;;;;;;4987715;28;20712;-76
2022/09/16 10:15:52;;;;;;;2.13;1.93;;;13.30;99.90;;;;;;4987258;28;21202;-76
2022/09/16 10:18:28;;;;;;;2.50;2.20;;;13.30;99.90;;;;;;4986431;28;20763;-76
2022/09/16 10:21:00;;;;;;;1.80;1.70;;;13.30;99.90;;;;;;4987400;28;20640;-76
2022/09/16 10:23:27;;;;;;;2.73;1.70;;;13.30;99.90;;;;;;4987343;28;20625;-77
2022/09/16 10:26:15;;;;;;;2.10;1.90;;;13.30;99.90;;;;;;4986852;28;20629;-76
2022/09/16 10:28:42;;;;;;;2.97;1.87;;;13.30;99.90;;;;;;4991142;28;20625;-77
2022/09/16 10:31:11;;;;;;;1.97;1.87;;;13.40;99.90;;;;;;4989051;28;20861;-77
2022/09/16 10:33:44;;;;;;;1.70;1.60;;;13.40;99.90;;;;;;4987404;28;20676;-77
2022/09/16 10:36:18;;;;;;;1.40;1.30;;;13.40;99.90;;;;;;4990369;28;21182;-77
2022/09/16 10:38:50;;;;;;;1.40;1.30;;;13.40;99.90;;;;;;4990781;28;20624;-76
2022/09/16 10:41:21;;;;;;;1.90;1.80;;;13.50;99.90;;;;;;4989806;28;20929;-77
2022/09/16 10:43:52;;;;;;;1.63;1.53;;;13.40;99.90;;;;;;4976834;28;21442;-78
2022/09/16 10:46:20;;;;;;;2.27;2.07;;;13.50;99.90;;;;;;4982622;28;20973;-76
2022/09/16 10:48:50;;;;;;;4.00;2.20;;;13.90;99.90;;;;;;4986739;28;20652;-77
2022/09/16 10:51:23;;;;;;;3.23;2.20;;;13.50;99.90;;;;;;4978394;28;21087;-76
2022/09/16 10:53:56;;;;;;;1.50;1.27;;;13.50;99.90;;;;;;4980527;28;21245;-78
2022/09/16 10:56:24;;;;;;;2.30;2.10;;;13.40;99.90;;;;;;4979407;28;20728;-76
2022/09/16 10:59:02;;;;;;;1.70;1.57;;;13.50;99.90;;;;;;4982876;28;20743;-77
2022/09/16 11:01:39;;;;;;;2.20;1.63;;;13.20;99.90;;;;;;4990891;28;20637;-76
2022/09/16 11:04:24;;;;;;;1.63;1.53;;;13.50;99.90;;;;;;4983842;28;20687;-77
2022/09/16 11:07:03;;;;;;;3.40;1.17;;;13.40;99.90;;;;;;4981558;28;20634;-76
2022/09/16 11:09:43;;;;;;;2.10;2.00;;;13.40;99.90;;;;;;4979643;28;20650;-77
2022/09/16 11:12:31;;;;;;;1.43;1.33;;;13.40;99.90;;;;;;4978900;28;20998;-77
2022/09/16 11:15:12;;;;;;;1.93;1.83;;;13.40;99.90;;;;;;4974045;28;20669;-80
2022/09/16 11:17:55;;;;;;;1.70;1.60;;;13.50;99.90;;;;;;4972757;28;20700;-77
2022/09/16 11:20:44;;;;;;;1.83;1.73;;;13.40;99.90;;;;;;4975923;28;20636;-79
2022/09/16 11:23:39;;;;;;;1.73;1.63;;;13.40;99.90;;;;;;4972477;28;20637;-81
2022/09/16 11:26:13;;;;;;;0.93;0.83;;;13.40;99.90;;;;;;4974096;28;20644;-77
2022/09/16 11:28:58;;;;;;;2.77;1.50;;;13.30;99.90;;;;;;4973416;28;20731;-77
2022/09/16 11:31:35;;;;;;;1.93;1.40;;;13.30;99.90;;;;;;4972492;28;21437;-76
2022/09/16 11:34:13;;;;;;;3.80;1.90;;;13.40;99.90;;;;;;4972581;28;20676;-78
2022/09/16 11:37:01;;;;;;;1.50;1.40;;;13.30;99.90;;;;;;4972545;28;20624;-77
2022/09/16 11:39:41;;;;;;;2.10;1.47;;;13.10;99.90;;;;;;4971641;28;20641;-76
2022/09/16 11:42:18;;;;;;;1.80;1.70;;;13.50;99.90;;;;;;4972527;28;20731;-76
2022/09/16 11:44:51;;;;;;;2.50;2.07;;;13.50;99.90;;;;;;4971757;28;20662;-77
2022/09/16 11:47:36;;;;;;;2.20;1.93;;;13.60;99.90;;;;;;4972388;28;20749;-77
2022/09/16 11:50:20;;;;;;;1.13;1.07;;;13.50;99.90;;;;;;4972405;28;21494;-77
2022/09/16 11:53:10;;;;;;;1.30;1.20;;;13.50;99.90;;;;;;4972231;28;20982;-76
2022/09/16 11:55:47;;;;;;;2.00;1.50;;;13.60;99.90;;;;;;4969836;28;21211;-76
2022/09/16 11:58:26;;;;;;;1.73;1.13;;;13.70;99.90;;;;;;4972617;28;20644;-77
2022/09/16 12:00:58;;;;;;;2.40;1.20;;;13.80;99.90;;;;;;4973098;28;20633;-76
2022/09/16 12:03:31;;;;;;;3.07;1.63;;;13.70;99.90;;;;;;4975554;28;21046;-77
2022/09/16 12:06:10;;;;;;;1.13;1.03;;;13.80;99.90;;;;;;4972718;28;20630;-76
2022/09/16 12:08:56;;;;;;;1.00;0.87;;;13.70;99.90;;;;;;4974159;28;20636;-77
2022/09/16 12:11:31;;;;;;;1.23;0.93;;;13.80;99.90;;;;;;4972073;28;21669;-77
2022/09/16 12:14:05;;;;;;;0.73;0.73;;;13.90;99.90;;;;;;4970672;28;20710;-77
2022/09/16 12:16:37;;;;;;;1.10;1.00;;;14.00;99.90;;;;;;4970980;28;20986;-77
2022/09/16 12:19:13;;;;;;;1.30;1.20;;;14.00;99.90;;;;;;4971560;28;20629;-76
2022/09/16 12:21:47;;;;;;;1.30;0.90;;;14.00;99.90;;;;;;4972951;28;20621;-76
2022/09/16 12:24:20;;;;;;;1.23;1.00;;;14.10;99.90;;;;;;4970348;28;20625;-77
2022/09/16 12:26:54;;;;;;;1.33;1.23;;;14.20;99.90;;;;;;4969662;28;20633;-76
2022/09/16 12:29:26;;;;;;;0.90;0.90;;;14.10;99.90;;;;;;4971993;28;20640;-77
2022/09/16 12:31:59;;;;;;;1.50;1.40;;;14.00;99.90;;;;;;4971355;28;21207;-78
2022/09/16 12:34:31;;;;;;;2.90;1.17;;;14.00;99.90;;;;;;4971457;28;20716;-77
2022/09/16 12:37:05;;;;;;;1.20;1.10;;;14.00;99.90;;;;;;4970731;28;20637;-76
2022/09/16 12:39:32;;;;;;;1.00;0.90;;;14.10;99.90;;;;;;4972272;28;20720;-75
2022/09/16 12:42:23;;;;;;;0.60;0.60;;;14.00;99.90;;;;;;4972814;28;20645;-77
2022/09/16 12:45:20;;;;;;;1.33;1.23;;;14.00;99.90;;;;;;4973192;28;20638;-77
2022/09/16 12:48:02;;;;;;;1.40;1.17;;;13.90;99.90;;;;;;4971500;28;20653;-78
2022/09/16 12:50:55;;;;;;;1.23;1.13;;;13.90;99.90;;;;;;4970716;28;21086;-78
2022/09/16 12:53:55;;;;;;;4.37;1.60;;;13.90;99.90;;;;;;4970614;28;20626;-78
2022/09/16 12:56:40;;;;;;;6.47;1.20;;;13.90;99.90;;;;;;4972369;28;20646;-78
2022/09/16 12:59:31;;;;;;;1.23;0.97;;;13.90;99.90;;;;;;4971582;28;20690;-77
2022/09/16 13:02:10;;;;;;;1.73;1.20;;;13.80;99.90;;;;;;4971201;28;20815;-80
2022/09/16 13:04:41;;;;;;;2.03;1.23;;;13.80;99.90;;;;;;4970350;28;20749;-79
2022/09/16 13:07:21;;;;;;;0.97;0.90;;;13.80;99.90;;;;;;4969933;28;21187;-78
2022/09/16 13:09:59;;;;;;;0.93;0.93;;;14.00;99.90;;;;;;4973575;28;20636;-78
2022/09/16 13:12:28;;;;;;;1.03;0.97;;;14.10;99.90;;;;;;4971549;28;20644;-78
2022/09/16 13:14:57;;;;;;;2.27;1.53;;;14.20;99.90;;;;;;4963579;28;20764;-76